sensor_id;sensor_type;location;lat;lon;timestamp;P1;durP1;ratioP1;P2;durP2;ratioP2
12968;SDS011;6549;53.128;8.182;2023-04-26T00:01:15;6.57;;;2.97;;
12968;SDS011;6549;53.128;8.182;2023-04-26T00:04:16;8.43;;;3.28;;
12968;SDS011;6549;53.128;8.182;2023-04-26T00:07:16;6.72;;;3.03;;
12968;SDS011;6549;53.128;8.182;2023-04-26T00:10:16;7.53;;;3.08;;
12968;SDS011;6549;53.128;8.182;2023-04-26T00:13:17;11.02;;;3.47;;
12968;SDS011;6549;53.128;8.182;2023-04-26T00:16:17;8.95;;;3.05;;
12968;SDS011;6549;53.128;8.182;2023-04-26T00:19:19;10.13;;;3.85;;
12968;SDS011;6549;53.128;8.182;2023-04-26T00:22:20;11.23;;;3.90;;
12968;SDS011;6549;53.128;8.182;2023-04-26T00:25:20;13.55;;;3.70;;
12968;SDS011;6549;53.128;8.182;2023-04-26T00:28:20;9.80;;;3.38;;
12968;SDS011;6549;53.128;8.182;2023-04-26T00:31:21;8.80;;;3.25;;
12968;SDS011;6549;53.128;8.182;2023-04-26T00:34:21;10.52;;;3.58;;
12968;SDS011;6549;53.128;8.182;2023-04-26T00:37:22;10.60;;;3.70;;
12968;SDS011;6549;53.128;8.182;2023-04-26T00:40:22;7.95;;;3.47;;
12968;SDS011;6549;53.128;8.182;2023-04-26T00:43:22;10.80;;;3.53;;
12968;SDS011;6549;53.128;8.182;2023-04-26T00:46:23;9.85;;;4.07;;
12968;SDS011;6549;53.128;8.182;2023-04-26T00:49:23;8.52;;;3.78;;
12968;SDS011;6549;53.128;8.182;2023-04-26T00:52:25;10.47;;;3.70;;
12968;SDS011;6549;53.128;8.182;2023-04-26T00:55:26;8.65;;;3.72;;
12968;SDS011;6549;53.128;8.182;2023-04-26T00:58:26;10.48;;;4.18;;
12968;SDS011;6549;53.128;8.182;2023-04-26T01:01:27;9.75;;;3.70;;
12968;SDS011;6549;53.128;8.182;2023-04-26T01:04:28;11.02;;;4.05;;
12968;SDS011;6549;53.128;8.182;2023-04-26T01:07:29;8.80;;;3.45;;
12968;SDS011;6549;53.128;8.182;2023-04-26T01:10:33;10.23;;;3.97;;
12968;SDS011;6549;53.128;8.182;2023-04-26T01:13:35;10.70;;;4.00;;
12968;SDS011;6549;53.128;8.182;2023-04-26T01:16:36;10.50;;;3.50;;
12968;SDS011;6549;53.128;8.182;2023-04-26T01:19:45;6.63;;;3.22;;
12968;SDS011;6549;53.128;8.182;2023-04-26T01:22:46;8.00;;;3.47;;
12968;SDS011;6549;53.128;8.182;2023-04-26T01:25:46;8.85;;;4.28;;
12968;SDS011;6549;53.128;8.182;2023-04-26T01:28:47;10.18;;;3.95;;
12968;SDS011;6549;53.128;8.182;2023-04-26T01:31:48;6.95;;;3.70;;
12968;SDS011;6549;53.128;8.182;2023-04-26T01:34:48;8.57;;;3.28;;
12968;SDS011;6549;53.128;8.182;2023-04-26T01:37:49;9.30;;;3.80;;
12968;SDS011;6549;53.128;8.182;2023-04-26T01:40:49;6.88;;;3.28;;
12968;SDS011;6549;53.128;8.182;2023-04-26T01:43:50;10.10;;;3.88;;
12968;SDS011;6549;53.128;8.182;2023-04-26T01:46:50;7.90;;;3.47;;
12968;SDS011;6549;53.128;8.182;2023-04-26T01:49:50;9.43;;;3.45;;
12968;SDS011;6549;53.128;8.182;2023-04-26T01:52:51;10.38;;;4.93;;
12968;SDS011;6549;53.128;8.182;2023-04-26T01:55:51;7.65;;;3.28;;
12968;SDS011;6549;53.128;8.182;2023-04-26T01:58:52;6.97;;;3.95;;
12968;SDS011;6549;53.128;8.182;2023-04-26T02:01:54;9.80;;;4.57;;
12968;SDS011;6549;53.128;8.182;2023-04-26T02:04:54;10.73;;;4.00;;
12968;SDS011;6549;53.128;8.182;2023-04-26T02:07:55;10.15;;;4.25;;
12968;SDS011;6549;53.128;8.182;2023-04-26T02:10:55;8.25;;;3.70;;
12968;SDS011;6549;53.128;8.182;2023-04-26T02:13:56;11.93;;;3.80;;
12968;SDS011;6549;53.128;8.182;2023-04-26T02:16:56;10.80;;;3.55;;
12968;SDS011;6549;53.128;8.182;2023-04-26T02:19:56;9.90;;;4.10;;
12968;SDS011;6549;53.128;8.182;2023-04-26T02:22:57;9.48;;;3.60;;
12968;SDS011;6549;53.128;8.182;2023-04-26T02:25:57;7.90;;;3.65;;
12968;SDS011;6549;53.128;8.182;2023-04-26T02:28:57;10.25;;;3.83;;
12968;SDS011;6549;53.128;8.182;2023-04-26T02:31:58;8.43;;;3.50;;
12968;SDS011;6549;53.128;8.182;2023-04-26T02:34:58;8.23;;;3.97;;
12968;SDS011;6549;53.128;8.182;2023-04-26T02:37:58;8.85;;;4.28;;
12968;SDS011;6549;53.128;8.182;2023-04-26T02:40:59;9.52;;;4.00;;
12968;SDS011;6549;53.128;8.182;2023-04-26T02:44:00;8.27;;;3.63;;
12968;SDS011;6549;53.128;8.182;2023-04-26T02:47:00;8.73;;;3.72;;
12968;SDS011;6549;53.128;8.182;2023-04-26T02:50:01;8.95;;;3.60;;
12968;SDS011;6549;53.128;8.182;2023-04-26T02:53:02;12.43;;;3.97;;
12968;SDS011;6549;53.128;8.182;2023-04-26T02:56:03;9.63;;;3.92;;
12968;SDS011;6549;53.128;8.182;2023-04-26T02:59:06;10.00;;;4.18;;
12968;SDS011;6549;53.128;8.182;2023-04-26T03:02:07;9.85;;;3.58;;
12968;SDS011;6549;53.128;8.182;2023-04-26T03:05:07;13.52;;;4.05;;
12968;SDS011;6549;53.128;8.182;2023-04-26T03:08:08;8.50;;;3.35;;
12968;SDS011;6549;53.128;8.182;2023-04-26T03:11:08;14.40;;;3.50;;
12968;SDS011;6549;53.128;8.182;2023-04-26T03:14:09;9.90;;;3.83;;
12968;SDS011;6549;53.128;8.182;2023-04-26T03:17:09;8.27;;;3.65;;
12968;SDS011;6549;53.128;8.182;2023-04-26T03:20:10;11.65;;;3.33;;
12968;SDS011;6549;53.128;8.182;2023-04-26T03:23:10;9.48;;;3.72;;
12968;SDS011;6549;53.128;8.182;2023-04-26T03:26:11;10.30;;;3.45;;
12968;SDS011;6549;53.128;8.182;2023-04-26T03:29:11;7.95;;;3.40;;
12968;SDS011;6549;53.128;8.182;2023-04-26T03:32:12;7.57;;;3.47;;
12968;SDS011;6549;53.128;8.182;2023-04-26T03:35:12;9.05;;;3.63;;
12968;SDS011;6549;53.128;8.182;2023-04-26T03:38:12;7.18;;;3.63;;
12968;SDS011;6549;53.128;8.182;2023-04-26T03:41:13;8.10;;;3.03;;
12968;SDS011;6549;53.128;8.182;2023-04-26T03:44:13;6.22;;;3.60;;
12968;SDS011;6549;53.128;8.182;2023-04-26T03:47:14;12.57;;;4.28;;
12968;SDS011;6549;53.128;8.182;2023-04-26T03:50:14;11.85;;;3.85;;
12968;SDS011;6549;53.128;8.182;2023-04-26T03:53:15;9.20;;;3.13;;
12968;SDS011;6549;53.128;8.182;2023-04-26T03:56:15;7.93;;;3.30;;
12968;SDS011;6549;53.128;8.182;2023-04-26T03:59:16;8.73;;;3.72;;
12968;SDS011;6549;53.128;8.182;2023-04-26T04:02:16;8.93;;;3.58;;
12968;SDS011;6549;53.128;8.182;2023-04-26T04:05:16;5.95;;;2.95;;
12968;SDS011;6549;53.128;8.182;2023-04-26T04:08:17;5.60;;;2.95;;
12968;SDS011;6549;53.128;8.182;2023-04-26T04:11:17;7.50;;;3.67;;
12968;SDS011;6549;53.128;8.182;2023-04-26T04:14:17;8.48;;;3.60;;
12968;SDS011;6549;53.128;8.182;2023-04-26T04:17:18;8.13;;;3.25;;
12968;SDS011;6549;53.128;8.182;2023-04-26T04:20:18;7.68;;;3.20;;
12968;SDS011;6549;53.128;8.182;2023-04-26T04:23:20;7.80;;;4.18;;
12968;SDS011;6549;53.128;8.182;2023-04-26T04:26:20;10.25;;;4.68;;
12968;SDS011;6549;53.128;8.182;2023-04-26T04:29:21;7.38;;;3.83;;
12968;SDS011;6549;53.128;8.182;2023-04-26T04:32:21;8.88;;;3.50;;
12968;SDS011;6549;53.128;8.182;2023-04-26T04:35:22;10.65;;;4.25;;
12968;SDS011;6549;53.128;8.182;2023-04-26T04:38:27;8.95;;;3.88;;
12968;SDS011;6549;53.128;8.182;2023-04-26T04:41:28;9.68;;;3.70;;
12968;SDS011;6549;53.128;8.182;2023-04-26T04:44:28;13.50;;;3.85;;
12968;SDS011;6549;53.128;8.182;2023-04-26T04:47:29;9.15;;;3.63;;
12968;SDS011;6549;53.128;8.182;2023-04-26T04:50:29;10.13;;;3.80;;
12968;SDS011;6549;53.128;8.182;2023-04-26T04:53:31;6.03;;;3.70;;
12968;SDS011;6549;53.128;8.182;2023-04-26T04:56:31;9.60;;;3.90;;
12968;SDS011;6549;53.128;8.182;2023-04-26T04:59:31;7.07;;;3.72;;
12968;SDS011;6549;53.128;8.182;2023-04-26T05:02:32;10.40;;;4.15;;
12968;SDS011;6549;53.128;8.182;2023-04-26T05:05:32;12.95;;;7.22;;
12968;SDS011;6549;53.128;8.182;2023-04-26T05:08:33;12.95;;;7.68;;
12968;SDS011;6549;53.128;8.182;2023-04-26T05:11:33;11.63;;;5.88;;
12968;SDS011;6549;53.128;8.182;2023-04-26T05:14:34;10.18;;;5.10;;
12968;SDS011;6549;53.128;8.182;2023-04-26T05:17:34;11.90;;;5.65;;
12968;SDS011;6549;53.128;8.182;2023-04-26T05:20:34;10.98;;;4.50;;
12968;SDS011;6549;53.128;8.182;2023-04-26T05:23:35;9.73;;;3.85;;
12968;SDS011;6549;53.128;8.182;2023-04-26T05:26:35;8.82;;;3.83;;
12968;SDS011;6549;53.128;8.182;2023-04-26T05:29:35;7.70;;;3.53;;
12968;SDS011;6549;53.128;8.182;2023-04-26T05:32:36;9.55;;;3.97;;
12968;SDS011;6549;53.128;8.182;2023-04-26T05:35:36;13.60;;;4.60;;
12968;SDS011;6549;53.128;8.182;2023-04-26T05:38:37;8.40;;;4.28;;
12968;SDS011;6549;53.128;8.182;2023-04-26T05:41:37;9.48;;;3.65;;
12968;SDS011;6549;53.128;8.182;2023-04-26T05:44:37;11.23;;;3.80;;
12968;SDS011;6549;53.128;8.182;2023-04-26T05:47:38;9.90;;;4.28;;
12968;SDS011;6549;53.128;8.182;2023-04-26T05:50:38;11.75;;;4.22;;
12968;SDS011;6549;53.128;8.182;2023-04-26T05:53:38;10.40;;;4.03;;
12968;SDS011;6549;53.128;8.182;2023-04-26T05:56:38;9.98;;;4.47;;
12968;SDS011;6549;53.128;8.182;2023-04-26T05:59:39;10.32;;;4.05;;
12968;SDS011;6549;53.128;8.182;2023-04-26T06:02:40;7.55;;;3.30;;
12968;SDS011;6549;53.128;8.182;2023-04-26T06:05:40;8.63;;;3.88;;
12968;SDS011;6549;53.128;8.182;2023-04-26T06:08:41;10.63;;;3.35;;
12968;SDS011;6549;53.128;8.182;2023-04-26T06:11:42;8.43;;;3.22;;
12968;SDS011;6549;53.128;8.182;2023-04-26T06:14:42;8.73;;;3.92;;
12968;SDS011;6549;53.128;8.182;2023-04-26T06:17:43;9.95;;;3.30;;
12968;SDS011;6549;53.128;8.182;2023-04-26T06:20:44;11.80;;;3.35;;
12968;SDS011;6549;53.128;8.182;2023-04-26T06:23:45;7.13;;;3.20;;
12968;SDS011;6549;53.128;8.182;2023-04-26T06:26:45;6.90;;;3.13;;
12968;SDS011;6549;53.128;8.182;2023-04-26T06:29:46;5.38;;;3.10;;
12968;SDS011;6549;53.128;8.182;2023-04-26T06:32:46;10.18;;;3.30;;
12968;SDS011;6549;53.128;8.182;2023-04-26T06:35:46;8.13;;;2.95;;
12968;SDS011;6549;53.128;8.182;2023-04-26T06:38:47;5.78;;;2.72;;
12968;SDS011;6549;53.128;8.182;2023-04-26T06:41:47;7.85;;;2.80;;
12968;SDS011;6549;53.128;8.182;2023-04-26T06:44:48;5.38;;;2.70;;
12968;SDS011;6549;53.128;8.182;2023-04-26T06:47:51;8.18;;;2.70;;
12968;SDS011;6549;53.128;8.182;2023-04-26T06:50:52;7.10;;;2.60;;
12968;SDS011;6549;53.128;8.182;2023-04-26T06:53:52;11.35;;;2.55;;
12968;SDS011;6549;53.128;8.182;2023-04-26T06:56:52;8.05;;;2.97;;
12968;SDS011;6549;53.128;8.182;2023-04-26T06:59:53;8.18;;;2.50;;
12968;SDS011;6549;53.128;8.182;2023-04-26T07:02:53;4.93;;;2.33;;
12968;SDS011;6549;53.128;8.182;2023-04-26T07:05:54;5.90;;;2.40;;
12968;SDS011;6549;53.128;8.182;2023-04-26T07:08:59;4.88;;;2.33;;
12968;SDS011;6549;53.128;8.182;2023-04-26T07:11:59;6.72;;;2.78;;
12968;SDS011;6549;53.128;8.182;2023-04-26T07:15:00;6.85;;;2.95;;
12968;SDS011;6549;53.128;8.182;2023-04-26T07:18:00;7.30;;;2.88;;
12968;SDS011;6549;53.128;8.182;2023-04-26T07:21:00;6.78;;;2.50;;
12968;SDS011;6549;53.128;8.182;2023-04-26T07:24:01;6.93;;;2.88;;
12968;SDS011;6549;53.128;8.182;2023-04-26T07:27:01;6.75;;;2.90;;
12968;SDS011;6549;53.128;8.182;2023-04-26T07:30:02;6.70;;;2.95;;
12968;SDS011;6549;53.128;8.182;2023-04-26T07:33:04;6.53;;;2.75;;
12968;SDS011;6549;53.128;8.182;2023-04-26T07:36:04;5.35;;;2.67;;
12968;SDS011;6549;53.128;8.182;2023-04-26T07:39:05;5.82;;;2.40;;
12968;SDS011;6549;53.128;8.182;2023-04-26T07:42:05;5.95;;;2.50;;
12968;SDS011;6549;53.128;8.182;2023-04-26T07:45:06;7.32;;;2.45;;
12968;SDS011;6549;53.128;8.182;2023-04-26T07:48:07;5.60;;;2.42;;
12968;SDS011;6549;53.128;8.182;2023-04-26T07:51:09;5.60;;;2.78;;
12968;SDS011;6549;53.128;8.182;2023-04-26T07:54:10;5.25;;;2.65;;
12968;SDS011;6549;53.128;8.182;2023-04-26T07:57:11;7.70;;;2.67;;
12968;SDS011;6549;53.128;8.182;2023-04-26T08:00:11;8.63;;;2.80;;
12968;SDS011;6549;53.128;8.182;2023-04-26T08:03:15;6.75;;;2.55;;
12968;SDS011;6549;53.128;8.182;2023-04-26T08:06:16;9.15;;;2.88;;
12968;SDS011;6549;53.128;8.182;2023-04-26T08:09:17;8.57;;;2.75;;
12968;SDS011;6549;53.128;8.182;2023-04-26T08:12:17;8.60;;;2.90;;
12968;SDS011;6549;53.128;8.182;2023-04-26T08:15:18;9.40;;;2.75;;
12968;SDS011;6549;53.128;8.182;2023-04-26T08:18:18;10.23;;;2.85;;
12968;SDS011;6549;53.128;8.182;2023-04-26T08:21:18;4.97;;;2.40;;
12968;SDS011;6549;53.128;8.182;2023-04-26T08:24:18;12.35;;;3.15;;
12968;SDS011;6549;53.128;8.182;2023-04-26T08:27:19;7.97;;;2.53;;
12968;SDS011;6549;53.128;8.182;2023-04-26T08:30:20;9.05;;;2.63;;
12968;SDS011;6549;53.128;8.182;2023-04-26T08:33:20;6.03;;;2.58;;
12968;SDS011;6549;53.128;8.182;2023-04-26T08:36:21;5.50;;;2.28;;
12968;SDS011;6549;53.128;8.182;2023-04-26T08:39:21;5.18;;;2.60;;
12968;SDS011;6549;53.128;8.182;2023-04-26T08:42:22;6.75;;;2.40;;
12968;SDS011;6549;53.128;8.182;2023-04-26T08:45:26;5.68;;;2.33;;
12968;SDS011;6549;53.128;8.182;2023-04-26T08:48:27;7.07;;;2.65;;
12968;SDS011;6549;53.128;8.182;2023-04-26T08:51:33;7.07;;;2.50;;
12968;SDS011;6549;53.128;8.182;2023-04-26T08:54:35;8.20;;;2.75;;
12968;SDS011;6549;53.128;8.182;2023-04-26T08:57:37;6.93;;;2.90;;
12968;SDS011;6549;53.128;8.182;2023-04-26T09:00:44;8.15;;;2.85;;
12968;SDS011;6549;53.128;8.182;2023-04-26T09:03:45;6.38;;;2.75;;
12968;SDS011;6549;53.128;8.182;2023-04-26T09:06:49;5.85;;;3.00;;
12968;SDS011;6549;53.128;8.182;2023-04-26T09:09:56;8.82;;;3.33;;
12968;SDS011;6549;53.128;8.182;2023-04-26T09:13:06;7.03;;;3.17;;
12968;SDS011;6549;53.128;8.182;2023-04-26T09:16:09;9.95;;;3.20;;
12968;SDS011;6549;53.128;8.182;2023-04-26T09:19:13;8.50;;;3.33;;
12968;SDS011;6549;53.128;8.182;2023-04-26T09:25:36;7.32;;;3.05;;
12968;SDS011;6549;53.128;8.182;2023-04-26T09:28:40;4.97;;;2.72;;
12968;SDS011;6549;53.128;8.182;2023-04-26T09:31:42;6.18;;;2.80;;
12968;SDS011;6549;53.128;8.182;2023-04-26T09:34:45;8.00;;;3.00;;
12968;SDS011;6549;53.128;8.182;2023-04-26T09:40:55;8.50;;;2.70;;
12968;SDS011;6549;53.128;8.182;2023-04-26T09:47:06;5.45;;;1.92;;
12968;SDS011;6549;53.128;8.182;2023-04-26T09:50:10;4.90;;;1.98;;
12968;SDS011;6549;53.128;8.182;2023-04-26T09:53:30;7.72;;;2.50;;
12968;SDS011;6549;53.128;8.182;2023-04-26T09:56:36;5.60;;;2.23;;
12968;SDS011;6549;53.128;8.182;2023-04-26T09:59:43;7.07;;;2.53;;
12968;SDS011;6549;53.128;8.182;2023-04-26T10:02:47;8.77;;;2.38;;
12968;SDS011;6549;53.128;8.182;2023-04-26T10:05:48;4.53;;;2.05;;
12968;SDS011;6549;53.128;8.182;2023-04-26T10:08:49;4.80;;;1.63;;
12968;SDS011;6549;53.128;8.182;2023-04-26T10:11:49;7.78;;;1.65;;
12968;SDS011;6549;53.128;8.182;2023-04-26T10:14:50;6.80;;;1.80;;
12968;SDS011;6549;53.128;8.182;2023-04-26T10:17:50;3.67;;;1.48;;
12968;SDS011;6549;53.128;8.182;2023-04-26T10:20:51;7.25;;;1.85;;
12968;SDS011;6549;53.128;8.182;2023-04-26T10:23:54;5.63;;;1.55;;
12968;SDS011;6549;53.128;8.182;2023-04-26T10:26:55;5.38;;;1.80;;
12968;SDS011;6549;53.128;8.182;2023-04-26T10:39:19;5.28;;;1.73;;
12968;SDS011;6549;53.128;8.182;2023-04-26T10:42:25;3.90;;;1.60;;
12968;SDS011;6549;53.128;8.182;2023-04-26T10:45:29;4.82;;;1.60;;
12968;SDS011;6549;53.128;8.182;2023-04-26T10:48:30;4.78;;;1.42;;
12968;SDS011;6549;53.128;8.182;2023-04-26T10:51:30;4.97;;;1.50;;
12968;SDS011;6549;53.128;8.182;2023-04-26T10:54:43;6.00;;;1.50;;
12968;SDS011;6549;53.128;8.182;2023-04-26T10:57:45;5.28;;;1.42;;
12968;SDS011;6549;53.128;8.182;2023-04-26T11:01:02;3.45;;;1.30;;
12968;SDS011;6549;53.128;8.182;2023-04-26T11:04:17;7.40;;;1.60;;
12968;SDS011;6549;53.128;8.182;2023-04-26T11:07:34;5.78;;;1.35;;
12968;SDS011;6549;53.128;8.182;2023-04-26T11:10:36;7.63;;;1.75;;
12968;SDS011;6549;53.128;8.182;2023-04-26T11:13:38;5.53;;;1.73;;
12968;SDS011;6549;53.128;8.182;2023-04-26T11:16:42;7.95;;;1.92;;
12968;SDS011;6549;53.128;8.182;2023-04-26T11:19:43;4.60;;;1.50;;
12968;SDS011;6549;53.128;8.182;2023-04-26T11:22:46;5.72;;;1.88;;
12968;SDS011;6549;53.128;8.182;2023-04-26T11:25:46;6.28;;;1.35;;
12968;SDS011;6549;53.128;8.182;2023-04-26T11:28:47;4.05;;;1.27;;
12968;SDS011;6549;53.128;8.182;2023-04-26T11:31:54;7.70;;;1.63;;
12968;SDS011;6549;53.128;8.182;2023-04-26T11:34:58;5.65;;;1.70;;
12968;SDS011;6549;53.128;8.182;2023-04-26T11:37:59;4.53;;;1.50;;
12968;SDS011;6549;53.128;8.182;2023-04-26T11:41:00;5.40;;;1.33;;
12968;SDS011;6549;53.128;8.182;2023-04-26T11:44:02;3.13;;;1.20;;
12968;SDS011;6549;53.128;8.182;2023-04-26T11:47:03;4.93;;;1.70;;
12968;SDS011;6549;53.128;8.182;2023-04-26T11:50:05;4.28;;;1.42;;
12968;SDS011;6549;53.128;8.182;2023-04-26T11:53:07;3.65;;;1.40;;
12968;SDS011;6549;53.128;8.182;2023-04-26T11:56:18;5.55;;;1.70;;
12968;SDS011;6549;53.128;8.182;2023-04-26T11:59:24;4.85;;;1.55;;
12968;SDS011;6549;53.128;8.182;2023-04-26T12:02:28;2.33;;;1.48;;
12968;SDS011;6549;53.128;8.182;2023-04-26T12:05:29;4.35;;;1.70;;
12968;SDS011;6549;53.128;8.182;2023-04-26T12:08:30;7.22;;;1.73;;
12968;SDS011;6549;53.128;8.182;2023-04-26T12:11:32;5.53;;;1.52;;
12968;SDS011;6549;53.128;8.182;2023-04-26T12:14:33;6.47;;;1.60;;
12968;SDS011;6549;53.128;8.182;2023-04-26T12:17:37;5.78;;;1.60;;
12968;SDS011;6549;53.128;8.182;2023-04-26T12:20:41;6.35;;;1.60;;
12968;SDS011;6549;53.128;8.182;2023-04-26T12:23:42;4.55;;;1.20;;
12968;SDS011;6549;53.128;8.182;2023-04-26T12:26:46;4.07;;;1.58;;
12968;SDS011;6549;53.128;8.182;2023-04-26T12:29:47;4.65;;;1.60;;
12968;SDS011;6549;53.128;8.182;2023-04-26T12:32:48;5.25;;;1.50;;
12968;SDS011;6549;53.128;8.182;2023-04-26T12:35:48;5.68;;;2.13;;
12968;SDS011;6549;53.128;8.182;2023-04-26T12:38:49;6.80;;;1.65;;
12968;SDS011;6549;53.128;8.182;2023-04-26T12:41:49;6.40;;;1.45;;
12968;SDS011;6549;53.128;8.182;2023-04-26T12:44:50;4.95;;;1.65;;
12968;SDS011;6549;53.128;8.182;2023-04-26T12:47:50;6.45;;;1.65;;
12968;SDS011;6549;53.128;8.182;2023-04-26T12:50:51;6.97;;;1.70;;
12968;SDS011;6549;53.128;8.182;2023-04-26T12:53:51;6.45;;;2.10;;
12968;SDS011;6549;53.128;8.182;2023-04-26T12:56:51;5.35;;;1.67;;
12968;SDS011;6549;53.128;8.182;2023-04-26T12:59:52;5.68;;;1.50;;
12968;SDS011;6549;53.128;8.182;2023-04-26T13:02:53;4.18;;;1.83;;
12968;SDS011;6549;53.128;8.182;2023-04-26T13:05:54;2.47;;;1.80;;
12968;SDS011;6549;53.128;8.182;2023-04-26T13:08:55;4.93;;;1.55;;
12968;SDS011;6549;53.128;8.182;2023-04-26T13:11:55;8.18;;;1.90;;
12968;SDS011;6549;53.128;8.182;2023-04-26T13:14:55;5.18;;;1.42;;
12968;SDS011;6549;53.128;8.182;2023-04-26T13:17:56;5.63;;;1.40;;
12968;SDS011;6549;53.128;8.182;2023-04-26T13:20:56;5.20;;;1.60;;
12968;SDS011;6549;53.128;8.182;2023-04-26T13:23:56;8.38;;;1.67;;
12968;SDS011;6549;53.128;8.182;2023-04-26T13:26:57;8.60;;;1.73;;
12968;SDS011;6549;53.128;8.182;2023-04-26T13:29:57;3.67;;;1.30;;
12968;SDS011;6549;53.128;8.182;2023-04-26T13:32:57;3.03;;;1.48;;
12968;SDS011;6549;53.128;8.182;2023-04-26T13:35:58;4.60;;;1.58;;
12968;SDS011;6549;53.128;8.182;2023-04-26T13:38:58;4.80;;;1.58;;
12968;SDS011;6549;53.128;8.182;2023-04-26T13:41:59;5.45;;;1.50;;
12968;SDS011;6549;53.128;8.182;2023-04-26T13:45:00;4.20;;;1.50;;
12968;SDS011;6549;53.128;8.182;2023-04-26T13:48:05;5.78;;;1.45;;
12968;SDS011;6549;53.128;8.182;2023-04-26T13:51:05;2.78;;;1.38;;
12968;SDS011;6549;53.128;8.182;2023-04-26T13:54:05;3.70;;;1.80;;
12968;SDS011;6549;53.128;8.182;2023-04-26T13:57:06;5.75;;;1.58;;
12968;SDS011;6549;53.128;8.182;2023-04-26T14:00:06;5.88;;;1.45;;
12968;SDS011;6549;53.128;8.182;2023-04-26T14:03:07;3.63;;;1.58;;
12968;SDS011;6549;53.128;8.182;2023-04-26T14:06:07;6.35;;;1.38;;
12968;SDS011;6549;53.128;8.182;2023-04-26T14:09:08;7.00;;;1.50;;
12968;SDS011;6549;53.128;8.182;2023-04-26T14:12:08;4.85;;;1.50;;
12968;SDS011;6549;53.128;8.182;2023-04-26T14:15:09;4.43;;;1.35;;
12968;SDS011;6549;53.128;8.182;2023-04-26T14:18:09;4.47;;;1.60;;
12968;SDS011;6549;53.128;8.182;2023-04-26T14:21:10;4.00;;;1.20;;
12968;SDS011;6549;53.128;8.182;2023-04-26T14:24:12;3.75;;;1.55;;
12968;SDS011;6549;53.128;8.182;2023-04-26T14:27:12;2.90;;;1.30;;
12968;SDS011;6549;53.128;8.182;2023-04-26T14:30:12;5.32;;;1.90;;
12968;SDS011;6549;53.128;8.182;2023-04-26T14:33:13;5.75;;;1.98;;
12968;SDS011;6549;53.128;8.182;2023-04-26T14:36:13;3.28;;;1.63;;
12968;SDS011;6549;53.128;8.182;2023-04-26T14:39:14;4.97;;;1.90;;
12968;SDS011;6549;53.128;8.182;2023-04-26T14:42:15;4.82;;;1.88;;
12968;SDS011;6549;53.128;8.182;2023-04-26T14:45:15;3.63;;;2.05;;
12968;SDS011;6549;53.128;8.182;2023-04-26T14:48:15;9.60;;;2.10;;
12968;SDS011;6549;53.128;8.182;2023-04-26T14:51:16;5.47;;;2.20;;
12968;SDS011;6549;53.128;8.182;2023-04-26T14:54:16;4.32;;;1.98;;
12968;SDS011;6549;53.128;8.182;2023-04-26T14:57:17;4.22;;;2.15;;
12968;SDS011;6549;53.128;8.182;2023-04-26T15:00:17;4.60;;;2.10;;
12968;SDS011;6549;53.128;8.182;2023-04-26T15:03:18;7.45;;;2.50;;
12968;SDS011;6549;53.128;8.182;2023-04-26T15:06:19;5.72;;;2.13;;
12968;SDS011;6549;53.128;8.182;2023-04-26T15:09:20;3.63;;;1.98;;
12968;SDS011;6549;53.128;8.182;2023-04-26T15:12:20;3.67;;;2.40;;
12968;SDS011;6549;53.128;8.182;2023-04-26T15:15:21;5.35;;;2.58;;
12968;SDS011;6549;53.128;8.182;2023-04-26T15:18:21;7.30;;;2.25;;
12968;SDS011;6549;53.128;8.182;2023-04-26T15:21:21;6.95;;;2.55;;
12968;SDS011;6549;53.128;8.182;2023-04-26T15:24:22;4.80;;;2.60;;
12968;SDS011;6549;53.128;8.182;2023-04-26T15:27:22;6.10;;;2.40;;
12968;SDS011;6549;53.128;8.182;2023-04-26T15:30:24;7.07;;;2.35;;
12968;SDS011;6549;53.128;8.182;2023-04-26T15:33:24;5.53;;;2.28;;
12968;SDS011;6549;53.128;8.182;2023-04-26T15:36:24;5.32;;;2.50;;
12968;SDS011;6549;53.128;8.182;2023-04-26T15:39:25;3.25;;;2.10;;
12968;SDS011;6549;53.128;8.182;2023-04-26T15:42:25;6.82;;;2.70;;
12968;SDS011;6549;53.128;8.182;2023-04-26T15:45:25;7.72;;;2.80;;
12968;SDS011;6549;53.128;8.182;2023-04-26T15:48:26;4.60;;;2.22;;
12968;SDS011;6549;53.128;8.182;2023-04-26T15:51:26;7.68;;;2.80;;
12968;SDS011;6549;53.128;8.182;2023-04-26T15:54:27;6.43;;;2.60;;
12968;SDS011;6549;53.128;8.182;2023-04-26T15:57:27;6.75;;;2.65;;
12968;SDS011;6549;53.128;8.182;2023-04-26T16:00:29;6.43;;;2.72;;
12968;SDS011;6549;53.128;8.182;2023-04-26T16:03:34;8.43;;;3.30;;
12968;SDS011;6549;53.128;8.182;2023-04-26T16:06:34;5.63;;;2.35;;
12968;SDS011;6549;53.128;8.182;2023-04-26T16:09:35;6.10;;;2.72;;
12968;SDS011;6549;53.128;8.182;2023-04-26T16:12:36;6.93;;;2.53;;
12968;SDS011;6549;53.128;8.182;2023-04-26T16:15:38;9.73;;;2.70;;
12968;SDS011;6549;53.128;8.182;2023-04-26T16:18:38;3.95;;;2.13;;
12968;SDS011;6549;53.128;8.182;2023-04-26T16:21:39;8.57;;;3.67;;
12968;SDS011;6549;53.128;8.182;2023-04-26T16:24:39;5.85;;;3.25;;
12968;SDS011;6549;53.128;8.182;2023-04-26T16:27:43;4.35;;;1.88;;
12968;SDS011;6549;53.128;8.182;2023-04-26T16:30:43;5.82;;;1.80;;
12968;SDS011;6549;53.128;8.182;2023-04-26T16:33:44;4.32;;;1.50;;
12968;SDS011;6549;53.128;8.182;2023-04-26T16:36:44;5.57;;;1.50;;
12968;SDS011;6549;53.128;8.182;2023-04-26T16:39:44;5.43;;;1.67;;
12968;SDS011;6549;53.128;8.182;2023-04-26T16:42:45;3.20;;;1.50;;
12968;SDS011;6549;53.128;8.182;2023-04-26T16:45:45;3.42;;;1.60;;
12968;SDS011;6549;53.128;8.182;2023-04-26T16:48:46;7.22;;;2.30;;
12968;SDS011;6549;53.128;8.182;2023-04-26T16:51:46;5.07;;;2.50;;
12968;SDS011;6549;53.128;8.182;2023-04-26T16:54:57;3.83;;;1.85;;
12968;SDS011;6549;53.128;8.182;2023-04-26T16:57:57;4.50;;;2.03;;
12968;SDS011;6549;53.128;8.182;2023-04-26T17:00:58;6.15;;;2.63;;
12968;SDS011;6549;53.128;8.182;2023-04-26T17:03:58;6.85;;;3.75;;
12968;SDS011;6549;53.128;8.182;2023-04-26T17:06:58;8.18;;;3.80;;
12968;SDS011;6549;53.128;8.182;2023-04-26T17:09:59;6.40;;;3.10;;
12968;SDS011;6549;53.128;8.182;2023-04-26T17:12:59;4.95;;;2.47;;
12968;SDS011;6549;53.128;8.182;2023-04-26T17:16:00;4.85;;;2.20;;
12968;SDS011;6549;53.128;8.182;2023-04-26T17:19:00;4.13;;;1.98;;
12968;SDS011;6549;53.128;8.182;2023-04-26T17:22:01;4.78;;;2.25;;
12968;SDS011;6549;53.128;8.182;2023-04-26T17:25:01;5.13;;;2.47;;
12968;SDS011;6549;53.128;8.182;2023-04-26T17:28:03;3.05;;;1.73;;
12968;SDS011;6549;53.128;8.182;2023-04-26T17:31:04;4.88;;;1.90;;
12968;SDS011;6549;53.128;8.182;2023-04-26T17:34:04;5.60;;;2.40;;
12968;SDS011;6549;53.128;8.182;2023-04-26T17:37:04;3.78;;;1.80;;
12968;SDS011;6549;53.128;8.182;2023-04-26T17:40:05;4.85;;;2.05;;
12968;SDS011;6549;53.128;8.182;2023-04-26T17:43:06;5.93;;;2.20;;
12968;SDS011;6549;53.128;8.182;2023-04-26T17:46:07;5.07;;;1.98;;
12968;SDS011;6549;53.128;8.182;2023-04-26T17:49:07;5.50;;;2.40;;
12968;SDS011;6549;53.128;8.182;2023-04-26T17:52:08;6.63;;;3.05;;
12968;SDS011;6549;53.128;8.182;2023-04-26T17:55:09;7.95;;;2.95;;
12968;SDS011;6549;53.128;8.182;2023-04-26T17:58:09;5.25;;;2.25;;
12968;SDS011;6549;53.128;8.182;2023-04-26T18:01:09;2.92;;;2.10;;
12968;SDS011;6549;53.128;8.182;2023-04-26T18:04:13;6.55;;;2.60;;
12968;SDS011;6549;53.128;8.182;2023-04-26T18:07:14;7.18;;;2.50;;
12968;SDS011;6549;53.128;8.182;2023-04-26T18:10:14;4.78;;;2.20;;
12968;SDS011;6549;53.128;8.182;2023-04-26T18:13:15;4.45;;;2.30;;
12968;SDS011;6549;53.128;8.182;2023-04-26T18:16:15;5.80;;;2.40;;
12968;SDS011;6549;53.128;8.182;2023-04-26T18:19:16;4.75;;;2.42;;
12968;SDS011;6549;53.128;8.182;2023-04-26T18:22:16;6.18;;;2.40;;
12968;SDS011;6549;53.128;8.182;2023-04-26T18:25:16;8.25;;;2.25;;
12968;SDS011;6549;53.128;8.182;2023-04-26T18:28:17;5.80;;;2.38;;
12968;SDS011;6549;53.128;8.182;2023-04-26T18:31:17;3.45;;;2.35;;
12968;SDS011;6549;53.128;8.182;2023-04-26T18:34:19;5.50;;;2.35;;
12968;SDS011;6549;53.128;8.182;2023-04-26T18:37:20;8.20;;;3.80;;
12968;SDS011;6549;53.128;8.182;2023-04-26T18:40:20;7.78;;;3.65;;
12968;SDS011;6549;53.128;8.182;2023-04-26T18:43:21;6.30;;;3.30;;
12968;SDS011;6549;53.128;8.182;2023-04-26T18:46:21;5.35;;;3.00;;